Terminal Aerodrome Forecast
Issued by NWS

Home | Current Version | Previous Version | Text Only | Print | Product List | Glossary On
Versions: 1 2 3 4 5 6 7 8 9 10 11 12 13 14 15 16 17 18
000
FTUS43 KILX 241300 AAA
TAFBMI
TAF AMD
KBMI 241347Z 2414/2512 VRB03KT P6SM SCT015
     FM241700 22008KT P6SM BKN010
     FM242100 21006KT P6SM SCT010 BKN250
     FM250400 21008KT P6SM BKN020=

USA.gov is the U.S. government's official web portal to all federal, state and local government web resources and services.